Lhanbryd, United Kingdom
Current Conditions -  °F | °C
As of 9:50 AM on Sunday 26 Oct 2014 (Local Time) from EGQS Reporting Station
Scattered Clouds Scattered Clouds  
Wind Chill: 12°   Ceiling: Unl
Heat Index: 12°   Visibility: 6mi
Dew Point:   Wind: 28mph
Humidity: 72%   Direction: 230°SW
Pressure: 29.44"   Gusts: 39mph
Location:  57.62°N, 3.22°W
Report Text: EGQS 260850Z 23024G34KT 9999 FEW030 SCT050 12/07 Q0997 BLU
Loading
Personal Weather Stations






























Interactive Weather Map
Tropical Storm Tracking
New forecast layout! Learn more

10-Day Weather Forecast

Advertisements
Track Severe Weather on mobile